createdAt,value
2023-04-18T00:03:36.215Z,96992.28
2023-04-18T00:08:49.073Z,97284.59
2023-04-18T00:13:52.161Z,97307.72
2023-04-18T00:18:55.307Z,97313.56
2023-04-18T00:23:57.854Z,97002.69
2023-04-18T00:29:00.528Z,97033.28
2023-04-18T00:34:13.382Z,97220.09
2023-04-18T00:39:16.475Z,97218.69
2023-04-18T00:44:19.093Z,97346.09
2023-04-18T00:49:22.520Z,97104.50
2023-04-18T00:54:25.558Z,97127.75
2023-04-18T00:59:28.197Z,97323.22
2023-04-18T01:04:33.293Z,97212.81
2023-04-18T01:09:37.036Z,97192.50
2023-04-18T01:14:43.731Z,97101.06
2023-04-18T01:19:49.882Z,97254.16
2023-04-18T01:24:52.892Z,97027.63
2023-04-18T01:29:57.626Z,96987.66
2023-04-18T01:35:00.424Z,97214.50
2023-04-18T01:40:03.325Z,97181.16
2023-04-18T01:45:07.014Z,97326.38
2023-04-18T01:50:10.335Z,97114.34
2023-04-18T01:55:13.104Z,96901.22
2023-04-18T02:00:16.148Z,97326.38
2023-04-18T02:05:23.337Z,97138.00
2023-04-18T02:10:28.626Z,97163.13
2023-04-18T02:15:32.357Z,97146.06
2023-04-18T02:20:35.142Z,96932.97
2023-04-18T02:25:37.733Z,97166.56
2023-04-18T02:30:40.552Z,97113.75
2023-04-18T02:35:44.489Z,97291.81
2023-04-18T02:40:57.276Z,97279.31
2023-04-18T02:46:00.304Z,96972.81
2023-04-18T02:51:07.577Z,97269.22
2023-04-18T02:56:10.448Z,97258.16
2023-04-18T03:01:13.460Z,97202.44
2023-04-18T03:06:16.035Z,97002.13
2023-04-18T03:11:18.606Z,97203.38
2023-04-18T03:16:21.963Z,97148.56
2023-04-18T03:21:24.602Z,97064.59
2023-04-18T03:26:27.734Z,97287.75
2023-04-18T03:31:30.348Z,97226.75
2023-04-18T03:36:33.379Z,97006.25
2023-04-18T03:41:36.147Z,97209.13
2023-04-18T03:46:38.779Z,97113.91
2023-04-18T03:51:48.696Z,97121.63
2023-04-18T03:56:51.741Z,97005.53
2023-04-18T04:01:54.423Z,97125.13
2023-04-18T04:06:57.446Z,97278.22
2023-04-18T04:12:00.052Z,96964.72
2023-04-18T04:17:02.657Z,96916.31
2023-04-18T04:22:11.996Z,97293.38
2023-04-18T04:27:14.640Z,97035.47
2023-04-18T04:32:17.774Z,96905.03
2023-04-18T04:37:20.433Z,96997.81
2023-04-18T04:42:25.976Z,97181.31
2023-04-18T04:47:29.241Z,97275.72
2023-04-18T04:52:33.522Z,97017.47
2023-04-18T04:57:36.926Z,97083.69
2023-04-18T05:02:39.549Z,97032.56
2023-04-18T05:07:42.329Z,97272.34
2023-04-18T05:12:45.200Z,97289.69
2023-04-18T05:17:48.127Z,96992.38
2023-04-18T05:22:51.682Z,97295.38
2023-04-18T05:27:54.499Z,97095.63
2023-04-18T05:32:57.250Z,97213.22
2023-04-18T05:38:00.074Z,97013.34
2023-04-18T05:43:02.925Z,97015.00
2023-04-18T05:48:05.557Z,97153.81
2023-04-18T05:53:08.416Z,97177.91
2023-04-18T05:58:21.047Z,96968.09
2023-04-18T06:03:23.929Z,97245.53
2023-04-18T06:08:26.722Z,97177.41
2023-04-18T06:13:29.354Z,96941.78
2023-04-18T06:18:32.742Z,97343.50
2023-04-18T06:23:35.436Z,97078.53
2023-04-18T06:28:37.986Z,97035.06
2023-04-18T06:33:40.567Z,97352.28
2023-04-18T06:38:43.297Z,97214.72
2023-04-18T06:43:59.776Z,97262.47
2023-04-18T06:49:05.818Z,97331.06
2023-04-18T06:54:08.622Z,97150.13
2023-04-18T06:59:11.313Z,97134.22
2023-04-18T07:04:14.848Z,97303.81
2023-04-18T07:09:18.027Z,97316.28
2023-04-18T07:14:22.977Z,97212.44
2023-04-18T07:19:26.705Z,97204.38
2023-04-18T07:24:29.519Z,97233.94
2023-04-18T07:29:32.675Z,97316.03
2023-04-18T07:34:37.245Z,97024.06
2023-04-18T07:39:42.030Z,97242.75
2023-04-18T07:45:00.505Z,97365.06
2023-04-18T07:50:10.107Z,97340.88
2023-04-18T07:55:26.270Z,97270.97
2023-04-18T08:00:40.064Z,97354.56
2023-04-18T08:05:44.265Z,97334.75
2023-04-18T08:10:57.981Z,97338.38
2023-04-18T08:16:03.342Z,97215.59
2023-04-18T08:21:06.081Z,97382.56
2023-04-18T08:26:08.669Z,97353.06
2023-04-18T08:31:15.795Z,97339.94
2023-04-18T08:36:18.409Z,97303.00
2023-04-18T08:41:24.200Z,97324.25
2023-04-18T08:46:27.312Z,97424.47
2023-04-18T08:51:41.094Z,97326.28
2023-04-18T08:56:43.972Z,97200.31
2023-04-18T09:01:57.653Z,97432.63
2023-04-18T09:07:00.580Z,97453.28
2023-04-18T09:12:10.779Z,97263.69
2023-04-18T09:17:34.410Z,97447.66
2023-04-18T09:22:54.245Z,97451.31
2023-04-18T09:28:02.948Z,97450.09
2023-04-18T09:33:08.428Z,97266.75
2023-04-18T09:38:11.620Z,97260.22
2023-04-18T09:43:21.577Z,97451.53
2023-04-18T09:48:35.180Z,97448.75
2023-04-18T09:53:40.827Z,97454.16
2023-04-18T09:58:45.192Z,97158.22
2023-04-18T10:03:52.658Z,97109.03
2023-04-18T10:08:56.372Z,97364.00
2023-04-18T10:14:04.339Z,97398.38
2023-04-18T10:19:25.648Z,97416.78
2023-04-18T10:24:50.412Z,97407.47
2023-04-18T10:29:58.629Z,97385.53
2023-04-18T10:35:03.027Z,97233.44
2023-04-18T10:40:14.893Z,97393.41
2023-04-18T10:45:22.397Z,97449.81
2023-04-18T10:50:26.756Z,97447.28
2023-04-18T10:55:44.783Z,97451.88
2023-04-18T11:00:51.756Z,97265.22
2023-04-18T11:06:02.838Z,97447.28
2023-04-18T11:11:09.979Z,97446.66
2023-04-18T11:16:29.865Z,97453.13
2023-04-18T11:21:32.936Z,97457.16
2023-04-18T11:26:39.240Z,97440.09
2023-04-18T11:31:42.590Z,97387.88
2023-04-18T11:36:45.248Z,97441.31
2023-04-18T11:41:51.418Z,97409.56
2023-04-18T11:46:54.628Z,97431.53
2023-04-18T11:51:59.898Z,97334.38
2023-04-18T11:57:03.258Z,97433.75
2023-04-18T12:02:16.216Z,97127.22
2023-04-18T12:07:56.833Z,97498.63
2023-04-18T12:12:59.852Z,97469.34
2023-04-18T12:18:05.592Z,97232.09
2023-04-18T12:23:08.882Z,97240.44
2023-04-18T12:28:16.571Z,97402.22
2023-04-18T12:33:20.515Z,97367.94
2023-04-18T12:38:31.315Z,97349.50
2023-04-18T12:43:33.906Z,97131.06
2023-04-18T12:48:36.944Z,97354.56
2023-04-18T12:53:49.511Z,97479.75
2023-04-18T12:58:52.080Z,97266.84
2023-04-18T13:04:12.669Z,97472.72
2023-04-18T13:09:17.385Z,97468.81
2023-04-18T13:14:20.212Z,97396.41
2023-04-18T13:19:23.339Z,97110.22
2023-04-18T13:24:26.141Z,97397.06
2023-04-18T13:29:29.268Z,97307.53
2023-04-18T13:34:32.177Z,97106.88
2023-04-18T13:39:35.748Z,97197.88
2023-04-18T13:44:39.029Z,97471.19
2023-04-18T13:49:42.221Z,97441.66
2023-04-18T13:54:44.930Z,97313.91
2023-04-18T13:59:47.719Z,97451.03
2023-04-18T14:04:59.024Z,97464.69
2023-04-18T14:10:02.947Z,97140.03
2023-04-18T14:15:06.344Z,97462.88
2023-04-18T14:20:09.626Z,97426.44
2023-04-18T14:25:12.835Z,97475.84
2023-04-18T14:30:15.879Z,97477.03
2023-04-18T14:35:18.514Z,97311.38
2023-04-18T14:40:21.633Z,97457.16
2023-04-18T14:45:24.219Z,97126.03
2023-04-18T14:50:27.703Z,97452.78
2023-04-18T14:55:30.388Z,97342.44
2023-04-18T15:00:34.051Z,97434.25
2023-04-18T15:05:39.456Z,97479.09
2023-04-18T15:10:43.309Z,97466.41
2023-04-18T15:15:52.906Z,97472.03
2023-04-18T15:20:55.657Z,97171.00
2023-04-18T15:25:58.214Z,97142.22
2023-04-18T15:31:00.844Z,97212.78
2023-04-18T15:36:03.681Z,97159.66
2023-04-18T15:41:16.483Z,97474.00
2023-04-18T15:46:19.139Z,97472.53
2023-04-18T15:51:23.007Z,97324.88
2023-04-18T15:56:27.575Z,97471.31
2023-04-18T16:01:30.565Z,97466.44
2023-04-18T16:06:33.149Z,97140.28
2023-04-18T16:11:45.993Z,97454.19
2023-04-18T16:16:49.309Z,97400.44
2023-04-18T16:21:52.200Z,97490.19
2023-04-18T16:26:56.517Z,97454.84
2023-04-18T16:31:59.333Z,97114.94
2023-04-18T16:37:02.587Z,97273.19
2023-04-18T16:42:06.120Z,97420.34
2023-04-18T16:47:09.158Z,97241.66
2023-04-18T16:52:11.872Z,97357.00
2023-04-18T16:57:14.725Z,97476.22
2023-04-18T17:02:17.599Z,97440.34
2023-04-18T17:07:20.343Z,97184.63
2023-04-18T17:12:22.882Z,97367.00
2023-04-18T17:17:36.377Z,97306.47
2023-04-18T17:22:39.433Z,97498.94
2023-04-18T17:27:42.278Z,97507.03
2023-04-18T17:32:52.569Z,97514.06
2023-04-18T17:37:55.153Z,97343.19
2023-04-18T17:42:57.757Z,97518.72
2023-04-18T17:48:03.332Z,97365.53
2023-04-18T17:53:06.185Z,97422.13
2023-04-18T17:58:08.876Z,97505.78
2023-04-18T18:03:15.173Z,97490.88
2023-04-18T18:08:18.393Z,97525.63
2023-04-18T18:13:21.236Z,97526.88
2023-04-18T18:18:24.242Z,97452.34
2023-04-18T18:23:26.820Z,97497.38
2023-04-18T18:28:29.658Z,97501.56
2023-04-18T18:33:32.187Z,97521.16
2023-04-18T18:38:44.802Z,97423.34
2023-04-18T18:43:51.270Z,97454.16
2023-04-18T18:49:12.636Z,97382.34
2023-04-18T18:54:15.248Z,97536.19
2023-04-18T18:59:18.716Z,97599.72
2023-04-18T19:04:21.634Z,97602.06
2023-04-18T19:09:24.536Z,97589.22
2023-04-18T19:14:27.250Z,97324.84
2023-04-18T19:19:29.817Z,97450.03
2023-04-18T19:24:32.750Z,97407.00
2023-04-18T19:29:41.370Z,97603.44
2023-04-18T19:34:43.976Z,97582.72
2023-04-18T19:39:46.566Z,97382.66
2023-04-18T19:45:00.173Z,97464.06
2023-04-18T19:50:02.748Z,97537.84
2023-04-18T19:55:05.886Z,97613.13
2023-04-18T20:00:12.970Z,97440.25
2023-04-18T20:05:15.698Z,97622.88
2023-04-18T20:10:22.923Z,97481.22
2023-04-18T20:15:30.668Z,97484.28
2023-04-18T20:20:43.729Z,97647.38
2023-04-18T20:25:46.311Z,97646.44
2023-04-18T20:30:59.188Z,97437.16
2023-04-18T20:36:02.017Z,97567.38
2023-04-18T20:41:04.706Z,97404.94
2023-04-18T20:51:14.885Z,97636.69
2023-04-18T20:56:18.649Z,97627.34
2023-04-18T21:01:22.974Z,97643.22
2023-04-18T21:06:29.145Z,97590.59
2023-04-18T21:11:32.541Z,97644.59
2023-04-18T21:16:37.500Z,97657.88
2023-04-18T21:21:41.251Z,97661.59
2023-04-18T21:26:44.871Z,97654.22
2023-04-18T21:31:51.013Z,97640.13
2023-04-18T21:37:01.733Z,97615.16
2023-04-18T21:42:04.765Z,97691.47
2023-04-18T21:47:07.813Z,97550.84
2023-04-18T21:52:10.432Z,97641.69
2023-04-18T21:57:13.399Z,97596.00
2023-04-18T22:02:17.218Z,97472.81
2023-04-18T22:07:20.140Z,97475.88
2023-04-18T22:12:22.690Z,97687.69
2023-04-18T22:17:25.376Z,97601.31
2023-04-18T22:22:28.069Z,97677.06
2023-04-18T22:27:30.617Z,97680.56
2023-04-18T22:32:33.714Z,97692.94
2023-04-18T22:37:36.344Z,97483.31
2023-04-18T22:42:39.215Z,97688.09
2023-04-18T22:47:51.861Z,97612.41
2023-04-18T22:52:54.716Z,97654.13
2023-04-18T22:57:57.943Z,97361.47
2023-04-18T23:03:01.143Z,97686.88
2023-04-18T23:08:03.839Z,97578.56
2023-04-18T23:13:06.694Z,97441.69
2023-04-18T23:18:09.638Z,97601.38
2023-04-18T23:23:12.179Z,97627.97
2023-04-18T23:28:14.711Z,97617.59
2023-04-18T23:33:17.864Z,97450.13
2023-04-18T23:38:24.333Z,97687.97
2023-04-18T23:43:27.142Z,97624.38
2023-04-18T23:48:29.825Z,97545.94
2023-04-18T23:53:32.406Z,97699.75
2023-04-18T23:58:35.022Z,97553.59
